Time;durP1;ratioP1;P1;durP2;ratioP2;P2;SDS_P1;SDS_P2;PMS_P1;PMS_P2;Temp;Humidity;BMP_temperature;BMP_pressure;BME280_temperature;BME280_humidity;BME280_pressure;Samples;Min_cycle;Max_cycle;Signal;HPM_P1;HPM_P2
2023/07/20 00:01:22;;;;;;;10.80;3.93;;;20.30;93.00;;;;;;5028827;28;20446;-72
2023/07/20 00:03:54;;;;;;;8.47;3.67;;;20.40;93.60;;;;;;5027361;28;20033;-72
2023/07/20 00:06:24;;;;;;;5.10;3.40;;;20.50;93.10;;;;;;5029349;28;20059;-70
2023/07/20 00:08:50;;;;;;;8.40;3.55;;;20.50;93.20;;;;;;5027236;28;20030;-70
2023/07/20 00:11:16;;;;;;;9.73;4.03;;;20.40;92.60;;;;;;5028531;28;20029;-71
2023/07/20 00:13:41;;;;;;;6.77;3.80;;;20.40;94.10;;;;;;5025459;28;20052;-71
2023/07/20 00:16:07;;;;;;;7.53;3.50;;;20.30;93.80;;;;;;5026443;28;20390;-70
2023/07/20 00:18:33;;;;;;;9.73;3.60;;;20.30;94.20;;;;;;5022913;28;20022;-72
2023/07/20 00:21:01;;;;;;;7.40;3.63;;;20.30;93.50;;;;;;5029943;28;20029;-69
2023/07/20 00:23:27;;;;;;;7.10;3.90;;;20.40;93.90;;;;;;5028124;28;20041;-72
2023/07/20 00:25:53;;;;;;;7.93;3.78;;;20.20;94.30;;;;;;5028830;28;20029;-71
2023/07/20 00:28:19;;;;;;;7.00;3.30;;;20.20;93.70;;;;;;5028697;28;20565;-72
2023/07/20 00:30:44;;;;;;;6.72;3.50;;;20.20;94.70;;;;;;5028286;28;20036;-72
2023/07/20 00:33:12;;;;;;;8.23;3.43;;;20.20;95.00;;;;;;5027585;28;20084;-71
2023/07/20 00:35:39;;;;;;;8.18;3.97;;;20.20;94.60;;;;;;5024778;28;20096;-70
2023/07/20 00:38:05;;;;;;;8.23;3.30;;;20.10;92.50;;;;;;5026604;28;20489;-71
2023/07/20 00:40:38;;;;;;;5.05;3.47;;;20.10;93.50;;;;;;5027673;28;20044;-72
2023/07/20 00:43:04;;;;;;;8.30;3.33;;;20.10;94.80;;;;;;5028594;28;20120;-70
2023/07/20 00:45:29;;;;;;;4.88;3.15;;;20.20;95.10;;;;;;5028305;28;20099;-71
2023/07/20 00:47:56;;;;;;;7.73;3.00;;;20.10;94.40;;;;;;5028186;28;20041;-70
2023/07/20 00:50:22;;;;;;;6.78;3.47;;;20.00;93.20;;;;;;5026964;28;20788;-71
2023/07/20 00:52:49;;;;;;;7.03;3.25;;;20.00;93.10;;;;;;5028501;28;20112;-74
2023/07/20 00:55:14;;;;;;;6.00;3.15;;;20.10;93.10;;;;;;5028494;28;20044;-77
2023/07/20 00:57:40;;;;;;;7.00;2.70;;;20.00;93.30;;;;;;5025100;28;20029;-73
2023/07/20 01:00:06;;;;;;;10.52;3.03;;;20.00;93.10;;;;;;5027132;28;20045;-71
2023/07/20 01:02:32;;;;;;;5.32;2.70;;;19.90;93.30;;;;;;5021540;28;20052;-73
2023/07/20 01:04:58;;;;;;;7.80;3.17;;;19.80;93.70;;;;;;5023612;28;20021;-72
2023/07/20 01:07:31;;;;;;;6.97;3.33;;;20.00;93.80;;;;;;5024799;28;20026;-75
2023/07/20 01:10:14;;;;;;;5.50;3.25;;;19.90;93.30;;;;;;5026938;28;20013;-74
2023/07/20 01:12:45;;;;;;;6.60;2.95;;;19.90;93.60;;;;;;5023610;28;20037;-73
2023/07/20 01:15:12;;;;;;;5.60;3.00;;;19.90;93.00;;;;;;5023061;28;20033;-75
2023/07/20 01:17:37;;;;;;;4.05;2.55;;;20.10;93.00;;;;;;5023200;28;20029;-72
2023/07/20 01:20:04;;;;;;;6.03;3.17;;;20.20;94.50;;;;;;5024738;28;20094;-73
2023/07/20 01:22:55;;;;;;;7.40;2.67;;;20.20;95.30;;;;;;5028924;28;20125;-70
2023/07/20 01:25:51;;;;;;;8.60;3.42;;;20.40;95.20;;;;;;5026619;28;20030;-71
2023/07/20 01:28:59;;;;;;;6.43;2.50;;;20.50;95.30;;;;;;5025949;28;20117;-71
2023/07/20 01:31:28;;;;;;;4.05;2.33;;;20.60;94.50;;;;;;5014815;28;20028;-71
2023/07/20 01:33:59;;;;;;;4.22;2.25;;;20.80;94.00;;;;;;5026590;28;20029;-76
2023/07/20 01:36:29;;;;;;;3.38;2.08;;;20.80;94.20;;;;;;5026344;28;20071;-71
2023/07/20 01:38:55;;;;;;;6.57;2.72;;;20.90;94.20;;;;;;5027382;28;20112;-71
2023/07/20 01:41:21;;;;;;;5.20;2.50;;;20.70;94.20;;;;;;5028209;28;20537;-71
2023/07/20 01:43:47;;;;;;;5.30;2.63;;;20.70;95.00;;;;;;5028298;28;20065;-76
2023/07/20 01:46:12;;;;;;;6.47;2.63;;;20.70;95.20;;;;;;5029336;28;20367;-72
2023/07/20 01:48:38;;;;;;;9.87;2.23;;;20.70;95.30;;;;;;5024121;28;20026;-75
2023/07/20 01:51:04;;;;;;;4.70;2.47;;;20.50;96.50;;;;;;5023650;28;20025;-74
2023/07/20 01:53:29;;;;;;;5.43;2.40;;;20.30;97.20;;;;;;5024150;28;20148;-75
2023/07/20 01:55:56;;;;;;;4.07;2.13;;;20.30;97.30;;;;;;5025791;28;20049;-73
2023/07/20 01:58:21;;;;;;;4.47;2.03;;;20.40;97.90;;;;;;5025168;28;20366;-72
2023/07/20 02:00:47;;;;;;;5.20;2.43;;;20.40;98.00;;;;;;5027279;28;20028;-71
2023/07/20 02:03:13;;;;;;;5.33;2.37;;;20.50;97.60;;;;;;5026586;28;20489;-72
2023/07/20 02:05:38;;;;;;;6.30;2.23;;;20.50;97.50;;;;;;5023135;28;20037;-74
2023/07/20 02:08:04;;;;;;;5.43;2.20;;;20.70;97.10;;;;;;5025495;28;20033;-73
2023/07/20 02:10:30;;;;;;;3.35;2.30;;;20.60;97.10;;;;;;5020553;28;20029;-74
2023/07/20 02:12:56;;;;;;;5.67;1.90;;;20.60;91.80;;;;;;5025155;28;20495;-70
2023/07/20 02:15:22;;;;;;;7.72;2.45;;;20.60;90.10;;;;;;5024278;28;20393;-75
2023/07/20 02:17:47;;;;;;;6.72;2.28;;;20.40;91.80;;;;;;5026053;28;20037;-74
2023/07/20 02:20:13;;;;;;;4.40;2.30;;;20.20;91.80;;;;;;5026423;28;20455;-72
2023/07/20 02:22:39;;;;;;;5.45;1.80;;;20.50;91.60;;;;;;5026593;28;20045;-76
2023/07/20 02:25:07;;;;;;;3.13;1.63;;;20.10;91.00;;;;;;5024475;28;20030;-71
2023/07/20 02:27:33;;;;;;;5.20;2.53;;;20.20;90.60;;;;;;5028277;28;20079;-70
2023/07/20 02:29:59;;;;;;;;;;;20.10;91.40;;;;;;5027041;28;20116;-73
2023/07/20 02:32:24;;;;;;;5.28;2.10;;;19.70;92.70;;;;;;5029196;28;20032;-71
2023/07/20 02:34:50;;;;;;;4.43;2.10;;;19.70;93.40;;;;;;5030426;28;20104;-71
2023/07/20 02:37:16;;;;;;;6.17;2.53;;;19.60;93.10;;;;;;5031570;28;20021;-71
2023/07/20 02:39:42;;;;;;;;;;;19.50;93.80;;;;;;5029047;28;20053;-73
2023/07/20 02:42:07;;;;;;;4.75;2.30;;;19.40;94.00;;;;;;5030823;28;20487;-74
2023/07/20 02:44:33;;;;;;;3.60;1.97;;;19.40;94.20;;;;;;5031437;28;20037;-72
2023/07/20 02:46:59;;;;;;;3.40;2.00;;;19.50;93.30;;;;;;5033881;28;20067;-77
2023/07/20 02:49:24;;;;;;;5.07;2.00;;;19.30;95.00;;;;;;5028236;28;20610;-77
2023/07/20 02:51:50;;;;;;;6.33;2.00;;;19.20;94.00;;;;;;5029522;28;20049;-71
2023/07/20 02:54:15;;;;;;;4.13;2.10;;;19.30;94.50;;;;;;5030762;28;20037;-77
2023/07/20 02:56:41;;;;;;;6.30;1.97;;;19.50;93.70;;;;;;5026727;28;20025;-72
2023/07/20 02:59:07;;;;;;;9.23;1.87;;;19.60;92.70;;;;;;5027785;28;20045;-74
2023/07/20 03:01:32;;;;;;;4.43;2.13;;;19.60;94.50;;;;;;5031774;28;20036;-73
2023/07/20 03:03:58;;;;;;;3.20;2.07;;;19.30;94.70;;;;;;5029585;28;20120;-73
2023/07/20 03:06:23;;;;;;;7.03;2.00;;;19.30;94.30;;;;;;5031363;28;20432;-74
2023/07/20 03:08:51;;;;;;;2.97;1.80;;;19.40;94.30;;;;;;5026670;28;20057;-71
2023/07/20 03:11:18;;;;;;;4.30;1.90;;;19.00;95.10;;;;;;5032495;28;20433;-73
2023/07/20 03:13:44;;;;;;;4.32;1.85;;;19.10;95.30;;;;;;5030574;28;20393;-74
2023/07/20 03:16:18;;;;;;;4.63;1.90;;;19.30;95.00;;;;;;5031029;28;20029;-70
2023/07/20 03:18:44;;;;;;;7.90;2.33;;;19.50;93.50;;;;;;5025724;28;20064;-72
2023/07/20 03:21:13;;;;;;;10.20;2.03;;;19.60;93.20;;;;;;5029893;28;20123;-74
2023/07/20 03:23:42;;;;;;;5.85;2.10;;;19.60;93.30;;;;;;5022387;28;20068;-72
2023/07/20 03:26:08;;;;;;;3.25;1.60;;;19.70;92.30;;;;;;5030572;28;20164;-72
2023/07/20 03:28:35;;;;;;;10.10;2.03;;;19.50;93.60;;;;;;5029725;28;20040;-73
2023/07/20 03:31:00;;;;;;;;;;;19.40;93.90;;;;;;5029529;28;20029;-73
2023/07/20 03:33:29;;;;;;;6.15;2.13;;;19.20;94.60;;;;;;5031340;28;20023;-72
2023/07/20 03:35:55;;;;;;;4.50;2.40;;;19.10;95.40;;;;;;5027690;28;20018;-74
2023/07/20 03:38:21;;;;;;;3.80;2.10;;;19.20;94.70;;;;;;5031074;28;20791;-71
2023/07/20 03:40:54;;;;;;;;;;;19.30;94.60;;;;;;5029002;28;20505;-74
2023/07/20 03:43:20;;;;;;;6.85;2.17;;;19.40;94.10;;;;;;5030952;28;20007;-75
2023/07/20 03:45:47;;;;;;;3.45;1.73;;;19.50;93.50;;;;;;5030411;28;20022;-74
2023/07/20 03:48:17;;;;;;;6.05;2.25;;;19.50;93.20;;;;;;5029303;28;20030;-72
2023/07/20 03:50:44;;;;;;;9.20;2.22;;;19.50;93.00;;;;;;5025206;28;20432;-75
2023/07/20 03:53:09;;;;;;;4.47;1.83;;;19.50;93.40;;;;;;5029528;28;20025;-75
2023/07/20 03:55:35;;;;;;;7.90;1.90;;;19.40;93.10;;;;;;5030974;28;20034;-76
2023/07/20 03:58:01;;;;;;;2.50;1.58;;;19.40;93.40;;;;;;5031954;28;20032;-75
2023/07/20 04:00:27;;;;;;;3.83;1.75;;;19.30;93.80;;;;;;5028970;28;20116;-74
2023/07/20 04:02:53;;;;;;;5.05;1.98;;;19.40;93.70;;;;;;5027900;28;20112;-74
2023/07/20 04:05:18;;;;;;;2.93;1.80;;;19.40;93.10;;;;;;5030569;28;20512;-71
2023/07/20 04:07:44;;;;;;;4.73;1.60;;;19.40;93.00;;;;;;5026842;28;20087;-73
2023/07/20 04:10:10;;;;;;;4.77;1.60;;;19.30;93.80;;;;;;5023709;28;20029;-70
2023/07/20 04:12:35;;;;;;;2.88;1.77;;;19.10;94.60;;;;;;5028803;28;20057;-70
2023/07/20 04:15:03;;;;;;;4.47;1.95;;;18.80;95.10;;;;;;5031104;28;20033;-70
2023/07/20 04:17:29;;;;;;;7.75;1.77;;;18.80;95.00;;;;;;5027350;28;20041;-70
2023/07/20 04:19:55;;;;;;;2.73;1.27;;;18.80;96.20;;;;;;5032188;28;20030;-70
2023/07/20 04:22:21;;;;;;;4.13;1.70;;;18.70;96.80;;;;;;5026881;28;20295;-72
2023/07/20 04:24:47;;;;;;;4.47;1.70;;;18.70;96.80;;;;;;5024660;28;20026;-71
2023/07/20 04:27:12;;;;;;;4.93;1.83;;;18.70;97.80;;;;;;5028098;28;20180;-70
2023/07/20 04:29:38;;;;;;;2.87;1.83;;;18.70;97.80;;;;;;5034776;28;20041;-71
2023/07/20 04:32:04;;;;;;;3.27;2.03;;;18.80;97.90;;;;;;5029234;28;20036;-70
2023/07/20 04:34:30;;;;;;;10.40;1.80;;;18.80;96.70;;;;;;5031793;28;20449;-73
2023/07/20 04:36:55;;;;;;;4.05;2.00;;;18.80;97.60;;;;;;5025654;28;20623;-71
2023/07/20 04:39:21;;;;;;;4.30;1.80;;;19.00;96.90;;;;;;5026958;28;20478;-71
2023/07/20 04:41:47;;;;;;;8.20;2.03;;;19.00;96.10;;;;;;5024888;28;20099;-71
2023/07/20 04:44:13;;;;;;;3.07;1.37;;;18.80;98.00;;;;;;5034123;28;20029;-72
2023/07/20 04:46:40;;;;;;;8.60;1.80;;;18.90;98.50;;;;;;5029545;28;20121;-70
2023/07/20 04:49:06;;;;;;;9.75;4.40;;;18.90;98.40;;;;;;5025024;28;20040;-71
2023/07/20 04:51:32;;;;;;;10.25;2.72;;;18.90;98.40;;;;;;5026448;28;20037;-70
2023/07/20 04:53:58;;;;;;;7.60;2.78;;;19.00;98.40;;;;;;5032678;28;20030;-70
2023/07/20 04:56:24;;;;;;;13.45;1.85;;;19.10;98.20;;;;;;5030917;28;20112;-73
2023/07/20 04:58:50;;;;;;;6.30;1.85;;;19.00;98.70;;;;;;5021435;28;20589;-73
2023/07/20 05:01:15;;;;;;;7.00;2.10;;;19.00;98.90;;;;;;5059294;28;20038;-72
2023/07/20 05:03:41;;;;;;;6.93;2.00;;;18.90;98.90;;;;;;5023205;28;20041;-74
2023/07/20 05:06:07;;;;;;;10.73;1.97;;;19.10;98.10;;;;;;5027966;28;20474;-71
2023/07/20 05:08:33;;;;;;;20.85;2.20;;;19.30;96.40;;;;;;5031540;28;20037;-71
2023/07/20 05:10:59;;;;;;;3.85;1.60;;;19.50;95.90;;;;;;5029665;28;20022;-71
2023/07/20 05:13:25;;;;;;;7.95;1.63;;;19.70;95.20;;;;;;5027539;28;20048;-70
2023/07/20 05:15:52;;;;;;;6.40;1.90;;;20.30;93.40;;;;;;5025359;28;20025;-71
2023/07/20 05:18:19;;;;;;;6.38;2.17;;;20.70;92.00;;;;;;5030281;28;20425;-71
2023/07/20 05:20:48;;;;;;;6.13;1.60;;;20.70;92.00;;;;;;5028597;28;20033;-72
2023/07/20 05:23:14;;;;;;;3.67;1.98;;;21.30;90.80;;;;;;5029966;28;20124;-70
2023/07/20 05:25:41;;;;;;;5.32;2.08;;;21.10;90.80;;;;;;5029492;28;20140;-75
2023/07/20 05:28:06;;;;;;;;;;;21.30;91.00;;;;;;5027878;28;20116;-74
2023/07/20 05:30:32;;;;;;;10.57;1.88;;;21.80;89.40;;;;;;5024744;28;20036;-71
2023/07/20 05:32:58;;;;;;;9.53;1.70;;;21.50;88.80;;;;;;5028289;28;20013;-71
2023/07/20 05:35:23;;;;;;;6.75;1.67;;;22.40;86.90;;;;;;5025237;28;20269;-71
2023/07/20 05:37:49;;;;;;;3.43;1.83;;;24.50;82.40;;;;;;5029379;28;20036;-73
2023/07/20 05:40:18;;;;;;;4.87;2.33;;;26.20;73.70;;;;;;5030023;28;20045;-73
2023/07/20 05:42:45;;;;;;;7.68;2.10;;;26.40;71.60;;;;;;5030467;28;20076;-71
2023/07/20 05:45:11;;;;;;;4.90;1.55;;;26.90;70.00;;;;;;5024700;28;20059;-74
2023/07/20 05:47:37;;;;;;;4.73;2.57;;;27.70;67.40;;;;;;5023149;28;20410;-74
2023/07/20 05:50:03;;;;;;;4.07;1.77;;;28.60;65.70;;;;;;5024451;28;20037;-72
2023/07/20 05:52:28;;;;;;;;;;;29.20;63.80;;;;;;5026481;28;20286;-71
2023/07/20 05:54:54;;;;;;;9.32;1.85;;;30.10;61.50;;;;;;5026983;28;19909;-73
2023/07/20 05:57:20;;;;;;;5.75;1.95;;;29.70;62.90;;;;;;5019539;28;20026;-76
2023/07/20 05:59:46;;;;;;;4.35;2.10;;;29.90;61.10;;;;;;5028270;28;20044;-74
2023/07/20 06:02:12;;;;;;;5.60;1.80;;;31.10;60.50;;;;;;5025531;28;20061;-70
2023/07/20 06:04:39;;;;;;;9.05;2.00;;;30.80;59.50;;;;;;5023737;28;20039;-69
2023/07/20 06:07:05;;;;;;;10.15;1.95;;;31.50;58.50;;;;;;5022514;28;20026;-71
2023/07/20 06:09:30;;;;;;;7.55;2.13;;;32.20;57.50;;;;;;5029014;28;20040;-71
2023/07/20 06:11:56;;;;;;;15.32;2.20;;;31.60;57.60;;;;;;5019230;28;20060;-70
2023/07/20 06:14:22;;;;;;;8.18;2.30;;;32.30;57.90;;;;;;5025635;28;20030;-72
2023/07/20 06:16:47;;;;;;;11.07;2.20;;;31.70;57.80;;;;;;5029250;28;20397;-70
2023/07/20 06:19:13;;;;;;;5.07;1.90;;;32.40;55.90;;;;;;5028717;28;20446;-73
2023/07/20 06:21:39;;;;;;;4.25;1.60;;;32.60;56.30;;;;;;5025686;28;20473;-73
2023/07/20 06:24:05;;;;;;;12.23;2.38;;;32.60;56.30;;;;;;5028150;28;20041;-72
2023/07/20 06:26:31;;;;;;;7.13;1.80;;;33.00;54.90;;;;;;5022873;28;20247;-70
2023/07/20 06:28:56;;;;;;;10.13;2.03;;;29.90;58.00;;;;;;5024224;28;20060;-73
2023/07/20 06:31:22;;;;;;;4.38;1.52;;;29.40;62.30;;;;;;5025058;28;20029;-70
2023/07/20 06:33:48;;;;;;;9.52;1.75;;;27.80;62.00;;;;;;5032964;28;20025;-72
2023/07/20 06:36:18;;;;;;;3.20;1.60;;;25.90;67.20;;;;;;5027579;28;20543;-70
2023/07/20 06:38:43;;;;;;;8.27;1.92;;;25.60;69.50;;;;;;5024816;28;20028;-72
2023/07/20 06:41:09;;;;;;;7.97;1.73;;;25.70;69.30;;;;;;5023777;28;20033;-74
2023/07/20 06:43:35;;;;;;;5.78;1.60;;;25.50;68.70;;;;;;5027488;28;20622;-76
2023/07/20 06:46:01;;;;;;;8.25;1.73;;;24.40;70.70;;;;;;5025243;28;20126;-78
2023/07/20 06:48:26;;;;;;;8.43;2.00;;;24.40;72.70;;;;;;5035041;28;20077;-69
2023/07/20 06:50:53;;;;;;;4.05;1.80;;;24.50;73.20;;;;;;5026728;28;20049;-70
2023/07/20 06:53:19;;;;;;;8.18;1.77;;;25.50;71.60;;;;;;5025874;28;20045;-70
2023/07/20 06:55:44;;;;;;;8.13;1.90;;;25.30;70.60;;;;;;5021292;28;20044;-70
2023/07/20 06:58:11;;;;;;;3.00;1.40;;;24.90;72.10;;;;;;5032763;28;20292;-70
2023/07/20 07:00:37;;;;;;;9.25;2.63;;;24.50;73.00;;;;;;5023595;28;20746;-71
2023/07/20 07:03:02;;;;;;;7.40;1.60;;;24.60;73.30;;;;;;5023243;28;20055;-70
2023/07/20 07:05:28;;;;;;;6.82;1.50;;;24.50;74.20;;;;;;5026020;28;20037;-70
2023/07/20 07:07:54;;;;;;;5.00;1.58;;;24.50;74.60;;;;;;5021768;28;20115;-69
2023/07/20 07:10:19;;;;;;;12.80;1.70;;;24.30;73.60;;;;;;5018784;28;20042;-68
2023/07/20 07:12:45;;;;;;;7.78;1.67;;;24.10;72.90;;;;;;5027247;28;20059;-68
2023/07/20 07:15:11;;;;;;;2.63;1.67;;;24.10;73.90;;;;;;5025785;28;20118;-68
2023/07/20 07:17:36;;;;;;;3.47;1.50;;;24.80;72.50;;;;;;5026552;28;20172;-69
2023/07/20 07:20:03;;;;;;;3.07;1.43;;;24.90;71.40;;;;;;5027777;28;20489;-69
2023/07/20 07:22:29;;;;;;;3.15;1.70;;;24.80;72.00;;;;;;5025250;28;20292;-69
2023/07/20 07:24:55;;;;;;;4.03;1.50;;;24.30;72.30;;;;;;5028607;28;20037;-68
2023/07/20 07:27:20;;;;;;;5.60;1.53;;;24.50;72.50;;;;;;5026357;28;21085;-73
2023/07/20 07:29:46;;;;;;;6.47;2.17;;;24.30;73.40;;;;;;5028040;28;20358;-68
2023/07/20 07:32:12;;;;;;;5.13;1.65;;;24.30;73.10;;;;;;5033992;28;20041;-69
2023/07/20 07:34:38;;;;;;;4.28;1.63;;;24.20;73.80;;;;;;5027963;28;20551;-68
2023/07/20 07:37:05;;;;;;;7.30;1.70;;;24.20;72.90;;;;;;5024475;28;20089;-69
2023/07/20 07:39:31;;;;;;;7.75;2.00;;;24.10;73.10;;;;;;5028228;28;20446;-70
2023/07/20 07:41:57;;;;;;;5.90;1.77;;;24.20;74.30;;;;;;5026825;28;20147;-70
2023/07/20 07:44:23;;;;;;;2.53;1.63;;;23.70;75.40;;;;;;5033034;28;20067;-69
2023/07/20 07:46:48;;;;;;;4.80;1.98;;;24.10;74.60;;;;;;5033683;28;20103;-68
2023/07/20 07:49:15;;;;;;;3.20;1.43;;;24.30;74.00;;;;;;5028302;28;20157;-69
2023/07/20 07:51:40;;;;;;;5.60;1.85;;;24.00;74.80;;;;;;5028217;28;20341;-69
2023/07/20 07:54:06;;;;;;;3.17;1.50;;;23.70;75.00;;;;;;5032272;28;20034;-68
2023/07/20 07:56:31;;;;;;;4.80;1.73;;;24.00;75.20;;;;;;5026378;28;20771;-70
2023/07/20 07:58:57;;;;;;;6.82;1.60;;;23.90;75.00;;;;;;5026279;28;20041;-69
2023/07/20 08:01:23;;;;;;;7.83;1.50;;;24.30;74.00;;;;;;5032206;28;20037;-68
2023/07/20 08:03:48;;;;;;;4.30;1.60;;;24.00;74.10;;;;;;5033242;28;20092;-70
2023/07/20 08:06:14;;;;;;;3.15;1.77;;;24.20;75.40;;;;;;5028740;28;20030;-69
2023/07/20 08:08:40;;;;;;;7.97;2.20;;;24.30;73.90;;;;;;5027488;28;20045;-68
2023/07/20 08:11:06;;;;;;;5.82;1.80;;;24.30;73.10;;;;;;5028929;28;20030;-69
2023/07/20 08:13:32;;;;;;;6.20;1.93;;;24.50;73.20;;;;;;5026395;28;20086;-70
2023/07/20 08:15:58;;;;;;;6.50;1.75;;;25.10;71.90;;;;;;5028364;28;20402;-69
2023/07/20 08:18:23;;;;;;;3.97;1.73;;;26.50;68.10;;;;;;5028165;28;20033;-67
2023/07/20 08:20:49;;;;;;;4.88;1.73;;;25.70;69.70;;;;;;5033003;28;20083;-68
2023/07/20 08:23:15;;;;;;;4.27;1.47;;;25.30;71.40;;;;;;5031230;28;20075;-69
2023/07/20 08:25:43;;;;;;;5.80;2.20;;;25.70;70.70;;;;;;5019783;28;20025;-70
2023/07/20 08:28:18;;;;;;;2.78;1.70;;;26.70;65.40;;;;;;5032595;28;20473;-68
2023/07/20 08:30:47;;;;;;;2.88;1.63;;;27.60;63.90;;;;;;5027791;28;20033;-68
2023/07/20 08:33:19;;;;;;;4.90;1.67;;;31.00;56.00;;;;;;5032414;28;20025;-69
2023/07/20 08:35:45;;;;;;;5.75;1.52;;;33.90;52.90;;;;;;5029703;28;20852;-69
2023/07/20 08:38:10;;;;;;;3.72;1.65;;;33.90;50.30;;;;;;5041419;28;20063;-74
2023/07/20 08:40:45;;;;;;;3.55;1.58;;;34.30;49.70;;;;;;5025949;28;20037;-68
2023/07/20 08:43:12;;;;;;;2.00;1.33;;;33.60;50.20;;;;;;5030370;28;20045;-68
2023/07/20 08:45:39;;;;;;;2.00;1.13;;;35.10;49.20;;;;;;5030638;28;20018;-69
2023/07/20 08:48:06;;;;;;;2.38;1.10;;;33.40;50.50;;;;;;5027967;28;20152;-69
2023/07/20 08:50:32;;;;;;;3.05;1.30;;;31.90;51.00;;;;;;5027046;28;20025;-70
2023/07/20 08:52:58;;;;;;;;;;;30.50;53.70;;;;;;5033168;28;20060;-70
2023/07/20 08:55:27;;;;;;;1.38;0.90;;;29.80;57.00;;;;;;5026744;28;20485;-70
2023/07/20 08:57:59;;;;;;;3.88;1.13;;;28.40;58.60;;;;;;5015533;28;20049;-69
2023/07/20 09:00:26;;;;;;;2.47;1.13;;;28.30;58.60;;;;;;5027878;28;20025;-69
2023/07/20 09:02:54;;;;;;;5.63;1.75;;;28.60;59.10;;;;;;5024071;28;20517;-75
2023/07/20 09:05:20;;;;;;;5.13;1.40;;;29.70;57.00;;;;;;5025239;28;20475;-71
2023/07/20 09:07:47;;;;;;;10.10;2.17;;;30.70;54.00;;;;;;5021127;28;20024;-69
2023/07/20 09:10:13;;;;;;;21.23;4.53;;;34.10;53.30;;;;;;5026751;28;20040;-65
2023/07/20 09:12:41;;;;;;;7.18;2.63;;;35.40;48.50;;;;;;5022758;28;20047;-65
2023/07/20 09:15:08;;;;;;;64.45;14.18;;;37.60;48.50;;;;;;5021525;28;20073;-67
2023/07/20 09:17:34;;;;;;;35.80;7.43;;;39.80;46.90;;;;;;5023182;28;20033;-66
2023/07/20 09:20:10;;;;;;;37.40;7.53;;;40.00;45.00;;;;;;5026365;28;20721;-66
2023/07/20 09:22:40;;;;;;;48.83;11.30;;;40.20;44.80;;;;;;5029640;28;20828;-66
2023/07/20 09:25:07;;;;;;;30.45;8.40;;;38.70;44.10;;;;;;5031253;28;20032;-66
2023/07/20 09:27:38;;;;;;;4.57;1.90;;;40.40;44.10;;;;;;5024090;28;20727;-66
2023/07/20 09:30:07;;;;;;;17.15;4.57;;;39.50;43.90;;;;;;5025622;28;20044;-66
2023/07/20 09:32:39;;;;;;;14.88;3.10;;;40.80;44.20;;;;;;5022678;28;20116;-66
2023/07/20 09:35:05;;;;;;;9.60;3.60;;;41.00;43.40;;;;;;5028366;28;20528;-67
2023/07/20 09:37:33;;;;;;;23.05;5.45;;;41.40;43.70;;;;;;5026682;28;20033;-66
2023/07/20 09:39:59;;;;;;;27.10;7.40;;;41.70;42.80;;;;;;5023696;28;20120;-66
2023/07/20 09:42:26;;;;;;;16.85;5.65;;;42.40;43.30;;;;;;5028087;28;20481;-67
2023/07/20 09:44:52;;;;;;;10.55;3.85;;;41.60;41.60;;;;;;5028141;28;20033;-67
2023/07/20 09:47:24;;;;;;;10.38;3.67;;;43.40;42.60;;;;;;5030516;28;20032;-67
2023/07/20 09:49:54;;;;;;;17.13;4.60;;;41.70;42.10;;;;;;5022734;28;20040;-71
2023/07/20 09:52:21;;;;;;;3.20;1.80;;;42.40;42.30;;;;;;5029578;28;20481;-67
2023/07/20 09:54:47;;;;;;;14.98;3.22;;;42.10;42.30;;;;;;5027753;28;20029;-67
2023/07/20 09:57:14;;;;;;;8.18;2.72;;;42.50;42.40;;;;;;5027679;28;20034;-65
2023/07/20 09:59:40;;;;;;;7.47;3.20;;;42.30;42.70;;;;;;5026047;28;20037;-66
2023/07/20 10:02:32;;;;;;;4.65;2.47;;;43.10;41.70;;;;;;5032034;28;20041;-66
2023/07/20 10:05:02;;;;;;;5.85;2.00;;;44.10;41.00;;;;;;5029837;28;20042;-66
2023/07/20 10:07:29;;;;;;;5.50;2.80;;;43.00;40.10;;;;;;5028415;28;20467;-66
2023/07/20 10:09:56;;;;;;;5.75;2.85;;;42.90;41.60;;;;;;5034273;28;20021;-66
2023/07/20 10:12:23;;;;;;;8.35;2.30;;;43.40;41.20;;;;;;5028851;28;20029;-67
2023/07/20 10:15:00;;;;;;;4.68;2.13;;;43.20;40.50;;;;;;5024823;28;20409;-69
2023/07/20 10:17:26;;;;;;;6.05;2.13;;;43.60;41.40;;;;;;5027376;28;20029;-67
2023/07/20 10:19:56;;;;;;;7.82;3.67;;;44.00;40.60;;;;;;5032007;28;20021;-66
2023/07/20 10:22:31;;;;;;;6.05;1.90;;;44.80;42.20;;;;;;5029615;28;20068;-66
2023/07/20 10:24:59;;;;;;;3.22;1.48;;;44.10;41.80;;;;;;5025708;28;20103;-66
2023/07/20 10:27:25;;;;;;;2.78;1.63;;;43.50;41.40;;;;;;5028591;28;20029;-66
2023/07/20 10:29:54;;;;;;;5.40;1.63;;;44.80;41.00;;;;;;5030963;28;20030;-66
2023/07/20 10:32:21;;;;;;;2.65;1.50;;;42.20;41.70;;;;;;5022430;28;20025;-66
2023/07/20 10:34:55;;;;;;;4.00;1.45;;;39.20;43.00;;;;;;5026967;28;20124;-67
2023/07/20 10:37:45;;;;;;;3.45;1.95;;;36.20;47.00;;;;;;5027777;28;20018;-68
2023/07/20 10:40:27;;;;;;;3.42;1.63;;;34.40;50.20;;;;;;5030056;28;20145;-66
2023/07/20 10:43:03;;;;;;;4.22;1.52;;;33.50;51.10;;;;;;5024694;28;20401;-66
2023/07/20 10:45:42;;;;;;;3.63;1.63;;;33.00;51.20;;;;;;5028550;28;20490;-67
2023/07/20 10:48:16;;;;;;;1.73;1.42;;;32.30;52.30;;;;;;5027643;28;20041;-65
2023/07/20 10:50:42;;;;;;;1.70;1.40;;;31.70;51.70;;;;;;5028267;28;20485;-66
2023/07/20 10:53:15;;;;;;;6.30;1.60;;;31.20;53.70;;;;;;5032997;28;20049;-66
2023/07/20 10:55:42;;;;;;;2.25;1.35;;;31.10;53.30;;;;;;5028438;28;20025;-66
2023/07/20 10:58:14;;;;;;;3.05;1.50;;;31.00;53.80;;;;;;5033012;28;20033;-66
2023/07/20 11:01:03;;;;;;;5.93;1.42;;;31.20;54.40;;;;;;5029147;28;20382;-66
2023/07/20 11:03:33;;;;;;;2.75;1.45;;;31.00;53.20;;;;;;5029603;28;20058;-66
2023/07/20 11:05:59;;;;;;;3.15;1.30;;;31.20;54.30;;;;;;5030720;28;20017;-66
2023/07/20 11:08:41;;;;;;;2.17;1.25;;;30.90;53.30;;;;;;5029463;28;20076;-66
2023/07/20 11:11:22;;;;;;;5.75;1.30;;;31.00;54.90;;;;;;5023514;28;20037;-66
2023/07/20 11:14:01;;;;;;;3.97;1.27;;;30.60;53.80;;;;;;5025160;28;20026;-67
2023/07/20 11:16:37;;;;;;;3.03;1.42;;;30.70;55.50;;;;;;5031341;28;20091;-66
2023/07/20 11:19:04;;;;;;;2.20;1.08;;;30.90;55.40;;;;;;5032828;28;20033;-66
2023/07/20 11:21:36;;;;;;;4.55;1.35;;;30.90;53.70;;;;;;5032555;28;20041;-66
2023/07/20 11:24:06;;;;;;;2.58;1.17;;;31.10;53.20;;;;;;5026919;28;20045;-66
2023/07/20 11:26:40;;;;;;;2.50;1.38;;;31.10;53.20;;;;;;5032531;28;20036;-66
2023/07/20 11:29:06;;;;;;;2.80;1.20;;;31.00;55.80;;;;;;5033881;28;20034;-65
2023/07/20 11:31:35;;;;;;;2.00;1.00;;;30.90;54.80;;;;;;5029558;28;20378;-66
2023/07/20 11:34:01;;;;;;;3.38;1.60;;;30.80;54.30;;;;;;5030133;28;20425;-66
2023/07/20 11:36:26;;;;;;;2.33;1.42;;;30.50;53.70;;;;;;5034696;28;20037;-66
2023/07/20 11:38:53;;;;;;;6.45;1.20;;;31.00;56.70;;;;;;5030327;28;20033;-66
2023/07/20 11:41:19;;;;;;;2.42;1.35;;;30.50;53.20;;;;;;5028466;28;20052;-67
2023/07/20 11:43:45;;;;;;;2.70;1.27;;;30.50;55.10;;;;;;5027723;28;20295;-66
2023/07/20 11:46:11;;;;;;;5.38;1.40;;;30.80;54.60;;;;;;5030845;28;20052;-66
2023/07/20 11:48:37;;;;;;;4.32;1.70;;;30.90;53.60;;;;;;5027324;28;20072;-66
2023/07/20 11:51:02;;;;;;;4.20;1.20;;;30.30;53.50;;;;;;5025106;28;20091;-66
2023/07/20 11:53:28;;;;;;;4.68;1.73;;;30.50;54.00;;;;;;5030638;28;20078;-67
2023/07/20 11:55:54;;;;;;;3.63;1.20;;;30.40;53.80;;;;;;5029843;28;20025;-67
2023/07/20 11:58:21;;;;;;;2.38;1.50;;;29.90;53.50;;;;;;5028547;28;20105;-69
2023/07/20 12:00:47;;;;;;;3.42;1.63;;;30.40;55.40;;;;;;5028711;28;20025;-66
2023/07/20 12:03:13;;;;;;;2.80;1.85;;;30.60;53.80;;;;;;5032545;28;20038;-66
2023/07/20 12:05:39;;;;;;;5.57;1.77;;;30.60;54.00;;;;;;5026679;28;20026;-66
2023/07/20 12:08:05;;;;;;;2.38;1.23;;;30.90;54.90;;;;;;5029350;28;20025;-66
2023/07/20 12:10:30;;;;;;;8.98;1.30;;;30.90;54.90;;;;;;5031040;28;20072;-67
2023/07/20 12:13:07;;;;;;;7.85;1.95;;;30.90;54.80;;;;;;5030833;28;20032;-66
2023/07/20 12:15:32;;;;;;;4.00;1.20;;;30.80;56.10;;;;;;5031117;28;20033;-66
2023/07/20 12:18:00;;;;;;;1.23;0.93;;;30.70;53.90;;;;;;5029055;28;20465;-66
2023/07/20 12:20:37;;;;;;;1.65;1.05;;;30.50;54.10;;;;;;5032361;28;20063;-66
2023/07/20 12:23:05;;;;;;;2.13;1.17;;;29.90;53.10;;;;;;5024602;28;20045;-67
2023/07/20 12:25:56;;;;;;;2.40;1.08;;;30.30;56.40;;;;;;5028246;28;20345;-66
2023/07/20 12:28:21;;;;;;;2.30;1.08;;;30.10;55.40;;;;;;5030149;28;20052;-66
2023/07/20 12:30:56;;;;;;;2.05;1.40;;;30.00;55.20;;;;;;5028557;28;20025;-65
2023/07/20 12:33:22;;;;;;;1.92;1.27;;;30.20;55.50;;;;;;5027834;28;20404;-67
2023/07/20 12:35:55;;;;;;;3.80;1.17;;;30.20;55.30;;;;;;5030422;28;20026;-68
2023/07/20 12:38:21;;;;;;;1.38;1.00;;;30.40;53.80;;;;;;5029323;28;20033;-66
2023/07/20 12:40:47;;;;;;;7.38;1.02;;;30.40;52.50;;;;;;5028519;28;20029;-66
2023/07/20 12:43:13;;;;;;;7.47;1.75;;;30.50;53.60;;;;;;5031290;28;20045;-66
2023/07/20 12:45:38;;;;;;;6.28;1.50;;;30.50;55.20;;;;;;5030213;28;20064;-65
2023/07/20 12:48:04;;;;;;;2.45;1.05;;;30.60;54.00;;;;;;5031254;28;20064;-66
2023/07/20 12:50:30;;;;;;;3.28;1.30;;;30.70;53.20;;;;;;5026657;28;20039;-66